sensor_id;sensor_type;location;lat;lon;timestamp;P1;durP1;ratioP1;P2;durP2;ratioP2
21816;SDS011;13247;47.504;7.382;2023-06-19T00:00:38;12.60;;;7.70;;
21816;SDS011;13247;47.504;7.382;2023-06-19T00:03:23;13.35;;;8.23;;
21816;SDS011;13247;47.504;7.382;2023-06-19T00:06:07;13.68;;;7.93;;
21816;SDS011;13247;47.504;7.382;2023-06-19T00:08:52;11.75;;;7.63;;
21816;SDS011;13247;47.504;7.382;2023-06-19T00:11:37;10.90;;;7.95;;
21816;SDS011;13247;47.504;7.382;2023-06-19T00:14:21;9.75;;;7.05;;
21816;SDS011;13247;47.504;7.382;2023-06-19T00:17:06;9.45;;;7.28;;
21816;SDS011;13247;47.504;7.382;2023-06-19T00:19:50;9.50;;;6.28;;
21816;SDS011;13247;47.504;7.382;2023-06-19T00:22:35;11.00;;;5.85;;
21816;SDS011;13247;47.504;7.382;2023-06-19T00:25:20;11.27;;;5.47;;
21816;SDS011;13247;47.504;7.382;2023-06-19T00:28:04;6.38;;;4.38;;
21816;SDS011;13247;47.504;7.382;2023-06-19T00:30:56;5.70;;;3.35;;
21816;SDS011;13247;47.504;7.382;2023-06-19T00:33:41;3.88;;;3.47;;
21816;SDS011;13247;47.504;7.382;2023-06-19T00:36:27;6.15;;;3.47;;
21816;SDS011;13247;47.504;7.382;2023-06-19T00:39:12;4.50;;;2.97;;
21816;SDS011;13247;47.504;7.382;2023-06-19T00:41:56;6.97;;;3.20;;
21816;SDS011;13247;47.504;7.382;2023-06-19T00:44:41;8.98;;;3.08;;
21816;SDS011;13247;47.504;7.382;2023-06-19T00:47:26;3.72;;;3.10;;
21816;SDS011;13247;47.504;7.382;2023-06-19T00:50:12;5.97;;;2.90;;
21816;SDS011;13247;47.504;7.382;2023-06-19T00:52:57;3.40;;;2.60;;
21816;SDS011;13247;47.504;7.382;2023-06-19T00:55:43;3.78;;;2.70;;
21816;SDS011;13247;47.504;7.382;2023-06-19T00:58:29;7.32;;;3.00;;
21816;SDS011;13247;47.504;7.382;2023-06-19T01:01:14;7.93;;;2.97;;
21816;SDS011;13247;47.504;7.382;2023-06-19T01:03:59;4.05;;;3.03;;
21816;SDS011;13247;47.504;7.382;2023-06-19T01:06:53;3.38;;;2.55;;
21816;SDS011;13247;47.504;7.382;2023-06-19T01:10:02;4.38;;;2.85;;
21816;SDS011;13247;47.504;7.382;2023-06-19T01:12:52;6.88;;;2.50;;
21816;SDS011;13247;47.504;7.382;2023-06-19T01:15:49;3.63;;;2.83;;
21816;SDS011;13247;47.504;7.382;2023-06-19T01:18:35;3.25;;;2.80;;
21816;SDS011;13247;47.504;7.382;2023-06-19T01:21:20;3.90;;;2.72;;
21816;SDS011;13247;47.504;7.382;2023-06-19T01:24:05;3.60;;;2.72;;
21816;SDS011;13247;47.504;7.382;2023-06-19T01:26:50;2.63;;;2.38;;
21816;SDS011;13247;47.504;7.382;2023-06-19T01:29:35;5.05;;;3.13;;
21816;SDS011;13247;47.504;7.382;2023-06-19T01:32:31;4.45;;;3.08;;
21816;SDS011;13247;47.504;7.382;2023-06-19T01:35:22;6.65;;;2.72;;
21816;SDS011;13247;47.504;7.382;2023-06-19T01:38:13;3.70;;;2.78;;
21816;SDS011;13247;47.504;7.382;2023-06-19T01:41:00;5.43;;;2.70;;
21816;SDS011;13247;47.504;7.382;2023-06-19T01:43:45;4.60;;;2.70;;
21816;SDS011;13247;47.504;7.382;2023-06-19T01:46:31;4.68;;;3.10;;
21816;SDS011;13247;47.504;7.382;2023-06-19T01:49:15;4.07;;;3.15;;
21816;SDS011;13247;47.504;7.382;2023-06-19T01:52:00;4.00;;;3.28;;
21816;SDS011;13247;47.504;7.382;2023-06-19T01:54:45;3.60;;;2.83;;
21816;SDS011;13247;47.504;7.382;2023-06-19T01:57:29;3.72;;;3.08;;
21816;SDS011;13247;47.504;7.382;2023-06-19T02:00:15;4.28;;;3.58;;
21816;SDS011;13247;47.504;7.382;2023-06-19T02:03:01;3.88;;;2.88;;
21816;SDS011;13247;47.504;7.382;2023-06-19T02:05:46;4.93;;;3.40;;
21816;SDS011;13247;47.504;7.382;2023-06-19T02:08:31;4.15;;;3.25;;
21816;SDS011;13247;47.504;7.382;2023-06-19T02:11:15;4.30;;;3.05;;
21816;SDS011;13247;47.504;7.382;2023-06-19T02:14:00;4.00;;;3.47;;
21816;SDS011;13247;47.504;7.382;2023-06-19T02:16:44;4.03;;;3.25;;
21816;SDS011;13247;47.504;7.382;2023-06-19T02:19:29;4.97;;;3.38;;
21816;SDS011;13247;47.504;7.382;2023-06-19T02:22:13;5.28;;;3.20;;
21816;SDS011;13247;47.504;7.382;2023-06-19T02:24:58;4.15;;;3.20;;
21816;SDS011;13247;47.504;7.382;2023-06-19T02:27:42;6.60;;;3.50;;
21816;SDS011;13247;47.504;7.382;2023-06-19T02:30:28;5.70;;;3.50;;
21816;SDS011;13247;47.504;7.382;2023-06-19T02:33:12;6.65;;;3.75;;
21816;SDS011;13247;47.504;7.382;2023-06-19T02:35:57;7.45;;;3.45;;
21816;SDS011;13247;47.504;7.382;2023-06-19T02:38:42;3.63;;;3.20;;
21816;SDS011;13247;47.504;7.382;2023-06-19T02:41:27;5.22;;;3.38;;
21816;SDS011;13247;47.504;7.382;2023-06-19T02:44:12;3.83;;;2.92;;
21816;SDS011;13247;47.504;7.382;2023-06-19T02:46:57;5.25;;;3.47;;
21816;SDS011;13247;47.504;7.382;2023-06-19T02:49:42;7.05;;;3.08;;
21816;SDS011;13247;47.504;7.382;2023-06-19T02:52:26;5.18;;;3.38;;
21816;SDS011;13247;47.504;7.382;2023-06-19T02:55:11;4.47;;;3.13;;
21816;SDS011;13247;47.504;7.382;2023-06-19T02:57:56;5.53;;;3.88;;
21816;SDS011;13247;47.504;7.382;2023-06-19T03:00:40;4.60;;;3.75;;
21816;SDS011;13247;47.504;7.382;2023-06-19T03:03:25;6.75;;;3.58;;
21816;SDS011;13247;47.504;7.382;2023-06-19T03:06:10;3.80;;;3.10;;
21816;SDS011;13247;47.504;7.382;2023-06-19T03:08:55;5.10;;;2.92;;
21816;SDS011;13247;47.504;7.382;2023-06-19T03:11:40;4.43;;;2.95;;
21816;SDS011;13247;47.504;7.382;2023-06-19T03:14:25;5.28;;;3.15;;
21816;SDS011;13247;47.504;7.382;2023-06-19T03:17:09;4.35;;;3.10;;
21816;SDS011;13247;47.504;7.382;2023-06-19T03:19:56;4.00;;;3.22;;
21816;SDS011;13247;47.504;7.382;2023-06-19T03:22:41;4.40;;;3.60;;
21816;SDS011;13247;47.504;7.382;2023-06-19T03:25:26;4.32;;;3.65;;
21816;SDS011;13247;47.504;7.382;2023-06-19T03:28:17;6.13;;;3.55;;
21816;SDS011;13247;47.504;7.382;2023-06-19T03:31:01;7.07;;;4.18;;
21816;SDS011;13247;47.504;7.382;2023-06-19T03:33:46;7.97;;;4.15;;
21816;SDS011;13247;47.504;7.382;2023-06-19T03:36:31;6.13;;;4.22;;
21816;SDS011;13247;47.504;7.382;2023-06-19T03:39:15;5.95;;;4.15;;
21816;SDS011;13247;47.504;7.382;2023-06-19T03:42:00;9.38;;;4.35;;
21816;SDS011;13247;47.504;7.382;2023-06-19T03:44:45;5.55;;;3.83;;
21816;SDS011;13247;47.504;7.382;2023-06-19T03:47:29;6.22;;;4.63;;
21816;SDS011;13247;47.504;7.382;2023-06-19T03:50:14;5.00;;;4.05;;
21816;SDS011;13247;47.504;7.382;2023-06-19T03:52:59;4.45;;;3.90;;
21816;SDS011;13247;47.504;7.382;2023-06-19T03:55:43;5.18;;;4.10;;
21816;SDS011;13247;47.504;7.382;2023-06-19T03:58:29;9.18;;;4.20;;
21816;SDS011;13247;47.504;7.382;2023-06-19T04:01:14;7.35;;;4.50;;
21816;SDS011;13247;47.504;7.382;2023-06-19T04:03:58;6.07;;;4.25;;
21816;SDS011;13247;47.504;7.382;2023-06-19T04:06:43;7.32;;;4.88;;
21816;SDS011;13247;47.504;7.382;2023-06-19T04:09:27;8.80;;;4.70;;
21816;SDS011;13247;47.504;7.382;2023-06-19T04:12:12;8.30;;;5.10;;
21816;SDS011;13247;47.504;7.382;2023-06-19T04:14:56;10.77;;;4.60;;
21816;SDS011;13247;47.504;7.382;2023-06-19T04:17:41;6.00;;;4.50;;
21816;SDS011;13247;47.504;7.382;2023-06-19T04:20:25;11.07;;;4.72;;
21816;SDS011;13247;47.504;7.382;2023-06-19T04:23:10;9.07;;;5.03;;
21816;SDS011;13247;47.504;7.382;2023-06-19T04:25:56;12.10;;;4.88;;
21816;SDS011;13247;47.504;7.382;2023-06-19T04:28:41;7.47;;;5.00;;
21816;SDS011;13247;47.504;7.382;2023-06-19T04:31:26;7.25;;;4.93;;
21816;SDS011;13247;47.504;7.382;2023-06-19T04:34:12;4.82;;;3.90;;
21816;SDS011;13247;47.504;7.382;2023-06-19T04:37:00;5.05;;;4.07;;
21816;SDS011;13247;47.504;7.382;2023-06-19T04:39:45;7.60;;;4.40;;
21816;SDS011;13247;47.504;7.382;2023-06-19T04:42:30;4.72;;;3.80;;
21816;SDS011;13247;47.504;7.382;2023-06-19T04:45:15;7.50;;;4.13;;
21816;SDS011;13247;47.504;7.382;2023-06-19T04:48:00;5.35;;;4.22;;
21816;SDS011;13247;47.504;7.382;2023-06-19T04:50:46;6.50;;;4.63;;
21816;SDS011;13247;47.504;7.382;2023-06-19T04:53:31;7.97;;;5.03;;
21816;SDS011;13247;47.504;7.382;2023-06-19T04:56:16;5.32;;;4.57;;
21816;SDS011;13247;47.504;7.382;2023-06-19T04:59:01;7.32;;;4.63;;
21816;SDS011;13247;47.504;7.382;2023-06-19T05:01:46;5.20;;;4.35;;
21816;SDS011;13247;47.504;7.382;2023-06-19T05:04:30;6.93;;;4.65;;
21816;SDS011;13247;47.504;7.382;2023-06-19T05:07:16;6.03;;;4.30;;
21816;SDS011;13247;47.504;7.382;2023-06-19T05:10:01;6.15;;;4.03;;
21816;SDS011;13247;47.504;7.382;2023-06-19T05:12:45;5.93;;;4.25;;
21816;SDS011;13247;47.504;7.382;2023-06-19T05:15:30;8.45;;;4.80;;
21816;SDS011;13247;47.504;7.382;2023-06-19T05:18:15;4.70;;;4.20;;
21816;SDS011;13247;47.504;7.382;2023-06-19T05:21:00;8.70;;;5.35;;
21816;SDS011;13247;47.504;7.382;2023-06-19T05:23:44;10.50;;;6.22;;
21816;SDS011;13247;47.504;7.382;2023-06-19T05:26:33;5.90;;;4.72;;
21816;SDS011;13247;47.504;7.382;2023-06-19T05:29:18;5.78;;;4.50;;
21816;SDS011;13247;47.504;7.382;2023-06-19T05:32:03;6.93;;;4.70;;
21816;SDS011;13247;47.504;7.382;2023-06-19T05:34:48;6.72;;;5.15;;
21816;SDS011;13247;47.504;7.382;2023-06-19T05:37:33;11.32;;;5.60;;
21816;SDS011;13247;47.504;7.382;2023-06-19T05:40:18;9.63;;;4.82;;
21816;SDS011;13247;47.504;7.382;2023-06-19T05:43:02;6.32;;;5.15;;
21816;SDS011;13247;47.504;7.382;2023-06-19T05:45:47;5.70;;;4.75;;
21816;SDS011;13247;47.504;7.382;2023-06-19T05:48:32;7.80;;;5.50;;
21816;SDS011;13247;47.504;7.382;2023-06-19T05:51:16;6.80;;;4.57;;
21816;SDS011;13247;47.504;7.382;2023-06-19T05:54:01;12.00;;;5.70;;
21816;SDS011;13247;47.504;7.382;2023-06-19T05:56:47;8.13;;;4.68;;
21816;SDS011;13247;47.504;7.382;2023-06-19T05:59:34;6.57;;;5.45;;
21816;SDS011;13247;47.504;7.382;2023-06-19T06:02:19;5.30;;;4.38;;
21816;SDS011;13247;47.504;7.382;2023-06-19T06:05:04;5.60;;;4.82;;
21816;SDS011;13247;47.504;7.382;2023-06-19T06:07:49;5.40;;;4.28;;
21816;SDS011;13247;47.504;7.382;2023-06-19T06:10:34;7.47;;;5.65;;
21816;SDS011;13247;47.504;7.382;2023-06-19T06:13:18;6.38;;;4.65;;
21816;SDS011;13247;47.504;7.382;2023-06-19T06:16:03;5.35;;;4.60;;
21816;SDS011;13247;47.504;7.382;2023-06-19T06:18:47;7.93;;;5.15;;
21816;SDS011;13247;47.504;7.382;2023-06-19T06:21:32;7.55;;;4.95;;
21816;SDS011;13247;47.504;7.382;2023-06-19T06:24:18;9.15;;;5.25;;
21816;SDS011;13247;47.504;7.382;2023-06-19T06:27:03;7.85;;;5.22;;
21816;SDS011;13247;47.504;7.382;2023-06-19T06:29:48;9.23;;;5.50;;
21816;SDS011;13247;47.504;7.382;2023-06-19T06:32:33;9.25;;;5.40;;
21816;SDS011;13247;47.504;7.382;2023-06-19T06:35:17;7.93;;;5.57;;
21816;SDS011;13247;47.504;7.382;2023-06-19T06:38:02;7.90;;;5.00;;
21816;SDS011;13247;47.504;7.382;2023-06-19T06:40:46;7.03;;;5.10;;
21816;SDS011;13247;47.504;7.382;2023-06-19T06:43:31;5.47;;;4.85;;
21816;SDS011;13247;47.504;7.382;2023-06-19T06:46:16;6.97;;;5.10;;
21816;SDS011;13247;47.504;7.382;2023-06-19T06:49:00;7.22;;;5.43;;
21816;SDS011;13247;47.504;7.382;2023-06-19T06:51:45;6.45;;;5.28;;
21816;SDS011;13247;47.504;7.382;2023-06-19T06:54:30;7.72;;;5.65;;
21816;SDS011;13247;47.504;7.382;2023-06-19T06:57:14;6.43;;;5.03;;
21816;SDS011;13247;47.504;7.382;2023-06-19T06:59:59;9.50;;;6.25;;
21816;SDS011;13247;47.504;7.382;2023-06-19T07:02:44;6.90;;;5.18;;
21816;SDS011;13247;47.504;7.382;2023-06-19T07:05:31;6.75;;;5.28;;
21816;SDS011;13247;47.504;7.382;2023-06-19T07:08:16;10.57;;;5.35;;
21816;SDS011;13247;47.504;7.382;2023-06-19T07:11:01;9.20;;;5.68;;
21816;SDS011;13247;47.504;7.382;2023-06-19T07:13:46;6.28;;;5.05;;
21816;SDS011;13247;47.504;7.382;2023-06-19T07:16:31;8.52;;;5.55;;
21816;SDS011;13247;47.504;7.382;2023-06-19T07:19:15;6.72;;;4.95;;
21816;SDS011;13247;47.504;7.382;2023-06-19T07:22:00;8.52;;;5.70;;
21816;SDS011;13247;47.504;7.382;2023-06-19T07:24:45;8.35;;;5.80;;
21816;SDS011;13247;47.504;7.382;2023-06-19T07:27:30;7.75;;;5.18;;
21816;SDS011;13247;47.504;7.382;2023-06-19T07:30:14;6.18;;;5.13;;
21816;SDS011;13247;47.504;7.382;2023-06-19T07:32:59;7.85;;;6.53;;
21816;SDS011;13247;47.504;7.382;2023-06-19T07:35:43;7.72;;;5.50;;
21816;SDS011;13247;47.504;7.382;2023-06-19T07:38:28;6.00;;;4.60;;
21816;SDS011;13247;47.504;7.382;2023-06-19T07:41:13;8.52;;;5.47;;
21816;SDS011;13247;47.504;7.382;2023-06-19T07:43:57;8.73;;;6.55;;
21816;SDS011;13247;47.504;7.382;2023-06-19T07:46:42;8.90;;;5.43;;
21816;SDS011;13247;47.504;7.382;2023-06-19T07:49:26;15.55;;;6.55;;
21816;SDS011;13247;47.504;7.382;2023-06-19T07:52:11;10.88;;;5.53;;
21816;SDS011;13247;47.504;7.382;2023-06-19T07:54:57;6.47;;;5.28;;
21816;SDS011;13247;47.504;7.382;2023-06-19T07:57:42;7.82;;;5.18;;
21816;SDS011;13247;47.504;7.382;2023-06-19T08:00:27;6.45;;;5.40;;
21816;SDS011;13247;47.504;7.382;2023-06-19T08:03:11;7.75;;;4.78;;
21816;SDS011;13247;47.504;7.382;2023-06-19T08:05:57;7.00;;;4.85;;
21816;SDS011;13247;47.504;7.382;2023-06-19T08:08:41;6.90;;;5.18;;
21816;SDS011;13247;47.504;7.382;2023-06-19T08:11:26;8.30;;;5.00;;
21816;SDS011;13247;47.504;7.382;2023-06-19T08:14:11;7.45;;;4.72;;
21816;SDS011;13247;47.504;7.382;2023-06-19T08:16:55;5.25;;;4.60;;
21816;SDS011;13247;47.504;7.382;2023-06-19T08:19:40;7.93;;;4.93;;
21816;SDS011;13247;47.504;7.382;2023-06-19T08:22:26;6.88;;;5.13;;
21816;SDS011;13247;47.504;7.382;2023-06-19T08:25:10;7.55;;;5.70;;
21816;SDS011;13247;47.504;7.382;2023-06-19T08:27:55;6.53;;;5.30;;
21816;SDS011;13247;47.504;7.382;2023-06-19T08:30:40;8.82;;;5.70;;
21816;SDS011;13247;47.504;7.382;2023-06-19T08:33:24;10.68;;;5.47;;
21816;SDS011;13247;47.504;7.382;2023-06-19T08:36:09;6.55;;;5.40;;
21816;SDS011;13247;47.504;7.382;2023-06-19T08:38:53;10.00;;;7.82;;
21816;SDS011;13247;47.504;7.382;2023-06-19T08:41:38;9.38;;;7.82;;
21816;SDS011;13247;47.504;7.382;2023-06-19T08:44:25;8.68;;;7.53;;
21816;SDS011;13247;47.504;7.382;2023-06-19T08:47:09;10.90;;;5.80;;
21816;SDS011;13247;47.504;7.382;2023-06-19T08:49:55;6.43;;;5.40;;
21816;SDS011;13247;47.504;7.382;2023-06-19T08:52:39;6.88;;;5.28;;
21816;SDS011;13247;47.504;7.382;2023-06-19T08:55:24;6.50;;;4.80;;
21816;SDS011;13247;47.504;7.382;2023-06-19T08:58:09;6.43;;;5.03;;
21816;SDS011;13247;47.504;7.382;2023-06-19T09:00:54;7.40;;;5.00;;
21816;SDS011;13247;47.504;7.382;2023-06-19T09:03:41;6.15;;;4.85;;
21816;SDS011;13247;47.504;7.382;2023-06-19T09:06:25;6.65;;;4.90;;
21816;SDS011;13247;47.504;7.382;2023-06-19T09:09:10;5.93;;;5.25;;
21816;SDS011;13247;47.504;7.382;2023-06-19T09:11:57;7.68;;;5.18;;
21816;SDS011;13247;47.504;7.382;2023-06-19T09:14:46;7.45;;;5.35;;
21816;SDS011;13247;47.504;7.382;2023-06-19T09:17:31;9.48;;;7.80;;
21816;SDS011;13247;47.504;7.382;2023-06-19T09:20:16;8.30;;;5.97;;
21816;SDS011;13247;47.504;7.382;2023-06-19T09:23:11;6.07;;;5.00;;
21816;SDS011;13247;47.504;7.382;2023-06-19T09:25:57;8.05;;;5.90;;
21816;SDS011;13247;47.504;7.382;2023-06-19T09:28:43;8.93;;;5.70;;
21816;SDS011;13247;47.504;7.382;2023-06-19T09:31:32;8.90;;;5.70;;
21816;SDS011;13247;47.504;7.382;2023-06-19T09:34:17;6.05;;;5.00;;
21816;SDS011;13247;47.504;7.382;2023-06-19T09:37:01;7.07;;;5.80;;
21816;SDS011;13247;47.504;7.382;2023-06-19T09:39:46;7.85;;;5.85;;
21816;SDS011;13247;47.504;7.382;2023-06-19T09:42:40;10.02;;;5.63;;
21816;SDS011;13247;47.504;7.382;2023-06-19T09:45:26;7.50;;;5.63;;
21816;SDS011;13247;47.504;7.382;2023-06-19T09:48:14;7.40;;;5.80;;
21816;SDS011;13247;47.504;7.382;2023-06-19T09:51:20;9.63;;;5.80;;
21816;SDS011;13247;47.504;7.382;2023-06-19T09:54:11;5.80;;;5.15;;
21816;SDS011;13247;47.504;7.382;2023-06-19T09:56:58;6.07;;;5.35;;
21816;SDS011;13247;47.504;7.382;2023-06-19T09:59:50;9.10;;;6.38;;
21816;SDS011;13247;47.504;7.382;2023-06-19T10:02:44;7.30;;;6.10;;
21816;SDS011;13247;47.504;7.382;2023-06-19T10:05:33;7.93;;;6.15;;
21816;SDS011;13247;47.504;7.382;2023-06-19T10:08:30;7.88;;;5.68;;
21816;SDS011;13247;47.504;7.382;2023-06-19T10:11:24;6.95;;;5.38;;
21816;SDS011;13247;47.504;7.382;2023-06-19T10:14:11;9.73;;;5.60;;
21816;SDS011;13247;47.504;7.382;2023-06-19T10:16:56;6.55;;;5.78;;
21816;SDS011;13247;47.504;7.382;2023-06-19T10:19:51;9.68;;;6.50;;
21816;SDS011;13247;47.504;7.382;2023-06-19T10:22:35;6.35;;;5.72;;
21816;SDS011;13247;47.504;7.382;2023-06-19T10:25:21;7.88;;;5.80;;
21816;SDS011;13247;47.504;7.382;2023-06-19T10:31:03;7.53;;;5.75;;
21816;SDS011;13247;47.504;7.382;2023-06-19T10:33:49;9.15;;;6.35;;
21816;SDS011;13247;47.504;7.382;2023-06-19T10:36:33;8.15;;;6.15;;
21816;SDS011;13247;47.504;7.382;2023-06-19T10:39:18;9.15;;;5.72;;
21816;SDS011;13247;47.504;7.382;2023-06-19T10:42:05;7.78;;;6.20;;
21816;SDS011;13247;47.504;7.382;2023-06-19T10:44:51;10.48;;;6.18;;
21816;SDS011;13247;47.504;7.382;2023-06-19T10:47:45;6.78;;;5.60;;
21816;SDS011;13247;47.504;7.382;2023-06-19T10:50:34;7.47;;;5.15;;
21816;SDS011;13247;47.504;7.382;2023-06-19T10:53:31;8.30;;;5.43;;
21816;SDS011;13247;47.504;7.382;2023-06-19T10:56:17;9.57;;;6.15;;
21816;SDS011;13247;47.504;7.382;2023-06-19T10:59:09;8.48;;;5.68;;
21816;SDS011;13247;47.504;7.382;2023-06-19T11:01:57;6.57;;;5.10;;
21816;SDS011;13247;47.504;7.382;2023-06-19T11:04:42;6.00;;;5.30;;
21816;SDS011;13247;47.504;7.382;2023-06-19T11:07:27;7.88;;;5.13;;
21816;SDS011;13247;47.504;7.382;2023-06-19T11:10:18;6.22;;;5.25;;
21816;SDS011;13247;47.504;7.382;2023-06-19T11:13:06;6.18;;;5.32;;
21816;SDS011;13247;47.504;7.382;2023-06-19T11:15:57;7.18;;;5.65;;
21816;SDS011;13247;47.504;7.382;2023-06-19T11:18:42;8.23;;;5.13;;
21816;SDS011;13247;47.504;7.382;2023-06-19T11:21:34;7.32;;;5.65;;
21816;SDS011;13247;47.504;7.382;2023-06-19T11:24:22;9.02;;;5.75;;
21816;SDS011;13247;47.504;7.382;2023-06-19T11:27:13;5.78;;;5.15;;
21816;SDS011;13247;47.504;7.382;2023-06-19T11:30:02;8.15;;;5.50;;
21816;SDS011;13247;47.504;7.382;2023-06-19T11:32:49;6.50;;;4.90;;
21816;SDS011;13247;47.504;7.382;2023-06-19T11:35:35;7.00;;;5.82;;
21816;SDS011;13247;47.504;7.382;2023-06-19T11:38:20;6.80;;;5.40;;
21816;SDS011;13247;47.504;7.382;2023-06-19T11:41:09;6.75;;;5.22;;
21816;SDS011;13247;47.504;7.382;2023-06-19T11:44:02;6.75;;;5.00;;
21816;SDS011;13247;47.504;7.382;2023-06-19T11:46:48;8.57;;;5.75;;
21816;SDS011;13247;47.504;7.382;2023-06-19T11:49:36;10.93;;;5.13;;
21816;SDS011;13247;47.504;7.382;2023-06-19T11:52:20;9.98;;;5.57;;
21816;SDS011;13247;47.504;7.382;2023-06-19T11:55:05;8.32;;;5.65;;
21816;SDS011;13247;47.504;7.382;2023-06-19T11:57:50;6.72;;;5.80;;
21816;SDS011;13247;47.504;7.382;2023-06-19T12:00:36;7.28;;;6.10;;
21816;SDS011;13247;47.504;7.382;2023-06-19T12:03:21;7.35;;;5.93;;
21816;SDS011;13247;47.504;7.382;2023-06-19T12:06:06;9.65;;;5.88;;
21816;SDS011;13247;47.504;7.382;2023-06-19T12:08:51;7.53;;;5.30;;
21816;SDS011;13247;47.504;7.382;2023-06-19T12:11:35;8.63;;;5.40;;
21816;SDS011;13247;47.504;7.382;2023-06-19T12:14:20;6.82;;;5.15;;
21816;SDS011;13247;47.504;7.382;2023-06-19T12:17:05;6.95;;;5.00;;
21816;SDS011;13247;47.504;7.382;2023-06-19T12:19:49;15.75;;;5.10;;
21816;SDS011;13247;47.504;7.382;2023-06-19T12:22:35;6.70;;;5.03;;
21816;SDS011;13247;47.504;7.382;2023-06-19T12:25:19;12.07;;;5.75;;
21816;SDS011;13247;47.504;7.382;2023-06-19T12:28:04;12.77;;;5.72;;
21816;SDS011;13247;47.504;7.382;2023-06-19T12:30:52;7.75;;;5.35;;
21816;SDS011;13247;47.504;7.382;2023-06-19T12:33:39;6.20;;;5.30;;
21816;SDS011;13247;47.504;7.382;2023-06-19T12:36:27;6.22;;;5.18;;
21816;SDS011;13247;47.504;7.382;2023-06-19T12:39:14;7.50;;;5.30;;
21816;SDS011;13247;47.504;7.382;2023-06-19T12:42:00;9.30;;;4.95;;
21816;SDS011;13247;47.504;7.382;2023-06-19T12:44:44;6.57;;;5.32;;
21816;SDS011;13247;47.504;7.382;2023-06-19T12:47:29;7.13;;;5.30;;
21816;SDS011;13247;47.504;7.382;2023-06-19T12:50:14;7.85;;;5.30;;
21816;SDS011;13247;47.504;7.382;2023-06-19T12:52:59;8.35;;;6.18;;
21816;SDS011;13247;47.504;7.382;2023-06-19T12:55:44;5.43;;;4.90;;
21816;SDS011;13247;47.504;7.382;2023-06-19T12:58:29;7.40;;;5.88;;
21816;SDS011;13247;47.504;7.382;2023-06-19T13:01:13;8.20;;;5.93;;
21816;SDS011;13247;47.504;7.382;2023-06-19T13:03:58;6.65;;;5.72;;
21816;SDS011;13247;47.504;7.382;2023-06-19T13:06:43;8.40;;;5.35;;
21816;SDS011;13247;47.504;7.382;2023-06-19T13:09:28;7.53;;;5.47;;
21816;SDS011;13247;47.504;7.382;2023-06-19T13:12:13;7.85;;;5.65;;
21816;SDS011;13247;47.504;7.382;2023-06-19T13:14:58;5.40;;;4.90;;
21816;SDS011;13247;47.504;7.382;2023-06-19T13:17:42;9.10;;;5.18;;
21816;SDS011;13247;47.504;7.382;2023-06-19T13:20:27;7.53;;;5.25;;
21816;SDS011;13247;47.504;7.382;2023-06-19T13:23:12;5.43;;;4.80;;
21816;SDS011;13247;47.504;7.382;2023-06-19T13:25:57;6.32;;;5.30;;
21816;SDS011;13247;47.504;7.382;2023-06-19T13:28:41;7.53;;;5.13;;
21816;SDS011;13247;47.504;7.382;2023-06-19T13:31:26;5.85;;;4.95;;
21816;SDS011;13247;47.504;7.382;2023-06-19T13:34:11;9.52;;;4.72;;
21816;SDS011;13247;47.504;7.382;2023-06-19T13:36:55;6.40;;;5.18;;
21816;SDS011;13247;47.504;7.382;2023-06-19T13:39:40;7.25;;;5.30;;
21816;SDS011;13247;47.504;7.382;2023-06-19T13:42:26;6.60;;;5.35;;
21816;SDS011;13247;47.504;7.382;2023-06-19T13:45:12;6.28;;;5.10;;
21816;SDS011;13247;47.504;7.382;2023-06-19T13:47:57;7.45;;;5.20;;
21816;SDS011;13247;47.504;7.382;2023-06-19T13:50:42;7.85;;;5.72;;
21816;SDS011;13247;47.504;7.382;2023-06-19T13:53:27;6.15;;;5.38;;
21816;SDS011;13247;47.504;7.382;2023-06-19T13:56:15;9.25;;;5.78;;
21816;SDS011;13247;47.504;7.382;2023-06-19T13:58:59;7.75;;;5.50;;
21816;SDS011;13247;47.504;7.382;2023-06-19T14:01:44;8.65;;;5.32;;
21816;SDS011;13247;47.504;7.382;2023-06-19T14:04:29;10.43;;;5.72;;
21816;SDS011;13247;47.504;7.382;2023-06-19T14:07:13;7.85;;;5.35;;
21816;SDS011;13247;47.504;7.382;2023-06-19T14:10:01;7.72;;;5.70;;
21816;SDS011;13247;47.504;7.382;2023-06-19T14:12:48;7.13;;;5.45;;
21816;SDS011;13247;47.504;7.382;2023-06-19T14:15:32;8.32;;;5.85;;
21816;SDS011;13247;47.504;7.382;2023-06-19T14:18:18;6.50;;;5.38;;
21816;SDS011;13247;47.504;7.382;2023-06-19T14:21:03;7.50;;;5.85;;
21816;SDS011;13247;47.504;7.382;2023-06-19T14:23:48;7.53;;;5.53;;
21816;SDS011;13247;47.504;7.382;2023-06-19T14:26:33;7.88;;;5.32;;
21816;SDS011;13247;47.504;7.382;2023-06-19T14:29:18;7.10;;;5.80;;
21816;SDS011;13247;47.504;7.382;2023-06-19T14:32:04;6.97;;;5.53;;
21816;SDS011;13247;47.504;7.382;2023-06-19T14:34:49;6.95;;;5.35;;
21816;SDS011;13247;47.504;7.382;2023-06-19T14:37:34;6.45;;;5.35;;
21816;SDS011;13247;47.504;7.382;2023-06-19T14:40:19;7.25;;;5.18;;
21816;SDS011;13247;47.504;7.382;2023-06-19T14:43:03;7.15;;;5.43;;
21816;SDS011;13247;47.504;7.382;2023-06-19T14:45:48;7.65;;;5.80;;
21816;SDS011;13247;47.504;7.382;2023-06-19T14:48:32;6.63;;;5.57;;
21816;SDS011;13247;47.504;7.382;2023-06-19T14:51:17;5.95;;;4.72;;
21816;SDS011;13247;47.504;7.382;2023-06-19T14:54:01;10.20;;;5.35;;
21816;SDS011;13247;47.504;7.382;2023-06-19T14:56:46;6.30;;;5.05;;
21816;SDS011;13247;47.504;7.382;2023-06-19T14:59:32;9.43;;;5.47;;
21816;SDS011;13247;47.504;7.382;2023-06-19T15:02:17;7.30;;;5.30;;
21816;SDS011;13247;47.504;7.382;2023-06-19T15:05:01;6.15;;;5.05;;
21816;SDS011;13247;47.504;7.382;2023-06-19T15:07:46;7.72;;;5.38;;
21816;SDS011;13247;47.504;7.382;2023-06-19T15:10:31;5.93;;;5.32;;
21816;SDS011;13247;47.504;7.382;2023-06-19T15:13:16;6.90;;;5.22;;
21816;SDS011;13247;47.504;7.382;2023-06-19T15:16:01;7.82;;;5.15;;
21816;SDS011;13247;47.504;7.382;2023-06-19T15:18:48;7.85;;;5.20;;
21816;SDS011;13247;47.504;7.382;2023-06-19T15:21:33;5.93;;;5.32;;
21816;SDS011;13247;47.504;7.382;2023-06-19T15:24:18;9.73;;;5.47;;
21816;SDS011;13247;47.504;7.382;2023-06-19T15:27:02;5.68;;;4.97;;
21816;SDS011;13247;47.504;7.382;2023-06-19T15:29:47;5.00;;;4.50;;
21816;SDS011;13247;47.504;7.382;2023-06-19T15:32:31;8.10;;;5.50;;
21816;SDS011;13247;47.504;7.382;2023-06-19T15:35:16;6.65;;;5.22;;
21816;SDS011;13247;47.504;7.382;2023-06-19T15:38:00;8.85;;;5.50;;
21816;SDS011;13247;47.504;7.382;2023-06-19T15:40:46;10.07;;;5.05;;
21816;SDS011;13247;47.504;7.382;2023-06-19T15:43:31;7.40;;;4.82;;
21816;SDS011;13247;47.504;7.382;2023-06-19T15:46:15;6.72;;;5.18;;
21816;SDS011;13247;47.504;7.382;2023-06-19T15:49:00;6.43;;;5.40;;
21816;SDS011;13247;47.504;7.382;2023-06-19T15:51:45;7.40;;;5.28;;
21816;SDS011;13247;47.504;7.382;2023-06-19T15:54:30;13.65;;;6.15;;
21816;SDS011;13247;47.504;7.382;2023-06-19T15:57:15;11.18;;;5.47;;
21816;SDS011;13247;47.504;7.382;2023-06-19T16:00:00;6.03;;;5.15;;
21816;SDS011;13247;47.504;7.382;2023-06-19T16:02:44;5.90;;;5.30;;
21816;SDS011;13247;47.504;7.382;2023-06-19T16:05:31;6.78;;;5.60;;
21816;SDS011;13247;47.504;7.382;2023-06-19T16:08:18;6.07;;;5.03;;
21816;SDS011;13247;47.504;7.382;2023-06-19T16:11:03;10.02;;;5.28;;
21816;SDS011;13247;47.504;7.382;2023-06-19T16:13:48;7.32;;;5.50;;
21816;SDS011;13247;47.504;7.382;2023-06-19T16:16:33;9.10;;;4.80;;
21816;SDS011;13247;47.504;7.382;2023-06-19T16:19:17;6.68;;;5.32;;
21816;SDS011;13247;47.504;7.382;2023-06-19T16:22:02;6.35;;;5.10;;
21816;SDS011;13247;47.504;7.382;2023-06-19T16:24:47;5.85;;;4.95;;
21816;SDS011;13247;47.504;7.382;2023-06-19T16:27:32;5.95;;;5.20;;
21816;SDS011;13247;47.504;7.382;2023-06-19T16:30:16;6.45;;;5.32;;
21816;SDS011;13247;47.504;7.382;2023-06-19T16:33:01;8.85;;;5.30;;
21816;SDS011;13247;47.504;7.382;2023-06-19T16:35:46;7.10;;;5.20;;
21816;SDS011;13247;47.504;7.382;2023-06-19T16:38:31;7.82;;;5.30;;